Terminal Aerodrome Forecast
Issued by NWS Twin Cities, MN

Home | Current Version | Previous Version | Graphics & Text | Print | Product List | Glossary On
Versions: 1 2 3 4 5 6 7 8 9 10 11 12 13 14 15 16 17 18 19 20 21 22 23 24 25 26 27 28
537
FTUS43 KMPX 242337
TAFMSP
TAF
KMSP 242337Z 2500/2606 30012KT P6SM VCSH BKN060
     FM250100 29009KT P6SM SCT080
     FM250900 29010KT P6SM BKN020
     FM251600 30015G24KT P6SM BKN050=

USA.gov is the U.S. government's official web portal to all federal, state and local government web resources and services.